createdAt,value
2022-09-05T00:04:34.164Z,1023.3
2022-09-05T05:17:43.019Z,1022.9
2022-09-05T05:22:57.634Z,1024.5
2022-09-05T05:28:28.595Z,1024.5
2022-09-05T05:33:47.713Z,1024.8
2022-09-05T05:39:37.778Z,1024.8
2022-09-05T05:44:55.979Z,1024.7
2022-09-05T05:50:46.918Z,1024.3
2022-09-05T05:56:11.981Z,1024.2
2022-09-05T06:07:30.452Z,1024.5
2022-09-05T06:14:53.797Z,1024.7
2022-09-05T06:18:45.786Z,1025.2
2022-09-05T06:23:59.516Z,1025.2
2022-09-05T06:35:13.594Z,1024.9
2022-09-05T08:38:33.922Z,1023.8
2022-09-05T08:55:35.412Z,1023
2022-09-05T09:40:33.073Z,1022.6
2022-09-05T09:46:11.142Z,1022.3
2022-09-05T09:51:31.941Z,1022.2
2022-09-05T10:04:17.453Z,1022.4
2022-09-05T10:14:22.496Z,1021.8
2022-09-05T10:25:31.847Z,1021.7
2022-09-05T10:59:58.710Z,1020.9
2022-09-05T11:05:15.472Z,1021
2022-09-05T11:10:54.703Z,1020.9
2022-09-05T11:16:31.228Z,1020.7
2022-09-05T11:21:52.693Z,1020.5
2022-09-05T11:27:40.846Z,1020.4
2022-09-05T11:34:04.194Z,1020.3
2022-09-05T11:39:03.748Z,1020.2
2022-09-05T13:04:18.949Z,1019
2022-09-05T13:43:43.289Z,1018.6
2022-09-05T13:49:31.504Z,1018.6
2022-09-05T13:55:14.590Z,1018.4
2022-09-05T14:01:03.957Z,1018.3
2022-09-05T14:06:46.787Z,1018.2
2022-09-05T14:12:05.468Z,1018
2022-09-05T14:17:57.589Z,1018
2022-09-05T14:23:45.224Z,1017.9
2022-09-05T15:43:10.640Z,1017.5
2022-09-05T16:50:36.800Z,1016.8
2022-09-05T17:01:42.671Z,1017.1
2022-09-05T17:07:23.742Z,1017.2
2022-09-05T18:20:27.270Z,1017.9
2022-09-05T18:26:17.323Z,1018.1
2022-09-05T18:31:40.669Z,1018.4
2022-09-05T18:43:02.803Z,1018.2
2022-09-05T18:54:20.160Z,1018.7
2022-09-05T18:59:31.217Z,1018.6
2022-09-05T19:05:28.915Z,1018.6
2022-09-05T19:10:44.294Z,1018.7
2022-09-05T19:16:42.947Z,1018.6
2022-09-05T19:28:13.927Z,1018.8
2022-09-05T19:37:01.161Z,1019
2022-09-05T19:40:40.111Z,1019
2022-09-05T19:47:32.090Z,1019.3
2022-09-05T19:50:18.123Z,1019.3
2022-09-05T19:55:34.696Z,1019.4
2022-09-05T20:01:27.615Z,1019.3
2022-09-05T20:23:38.802Z,1019.6
2022-09-05T20:43:13.089Z,1019.5
2022-09-05T20:46:02.895Z,1019.5
2022-09-05T20:54:12.157Z,1019.5
2022-09-05T20:57:08.084Z,1019.7
2022-09-05T21:02:47.181Z,1019.7
2022-09-05T21:08:30.481Z,1020
2022-09-05T21:14:06.196Z,1020
2022-09-05T21:30:36.622Z,1020.3
2022-09-05T21:36:09.999Z,1020.3
2022-09-05T21:42:22.924Z,1020.2
2022-09-05T21:47:36.969Z,1019.8
2022-09-05T21:53:39.274Z,1019.7
2022-09-05T21:59:15.940Z,1019.9
2022-09-05T22:04:13.902Z,1020.1
2022-09-05T22:10:06.637Z,1020.2
2022-09-05T22:15:38.321Z,1020.2
2022-09-05T22:21:32.372Z,1020.4
2022-09-05T22:26:23.213Z,1020.3
2022-09-05T22:32:32.417Z,1020.3
2022-09-05T22:37:53.551Z,1020.3
2022-09-05T22:43:21.203Z,1020.2
2022-09-05T22:48:57.754Z,1019.9
2022-09-05T22:54:32.652Z,1019.8
2022-09-05T22:59:56.565Z,1019.7
2022-09-05T23:05:36.932Z,1019.7
2022-09-05T23:11:24.596Z,1019.8
2022-09-05T23:16:56.647Z,1020.2
2022-09-05T23:22:22.462Z,1020.4
2022-09-05T23:27:53.036Z,1020.6
2022-09-05T23:33:26.797Z,1020.8
2022-09-05T23:38:58.436Z,1020.7
2022-09-05T23:44:33.850Z,1020.4
2022-09-05T23:50:26.851Z,1020.5
2022-09-05T23:55:39.154Z,1020.6
